Time;durP1;ratioP1;P1;durP2;ratioP2;P2;SDS_P1;SDS_P2;PMS_P1;PMS_P2;Temp;Humidity;BMP_temperature;BMP_pressure;BME280_temperature;BME280_humidity;BME280_pressure;Samples;Min_cycle;Max_cycle;Signal;HPM_P1;HPM_P2
2021/04/11 00:01:32;;;;;;;;;;;13.20;96.00;;;;;;5051903;28;76953;-74
2021/04/11 00:03:57;;;;;;;;;;;13.20;96.00;;;;;;5052661;28;75212;-73
2021/04/11 00:06:23;;;;;;;;;;;13.20;96.00;;;;;;5052963;28;75007;-75
2021/04/11 00:08:49;;;;;;;;;;;13.20;95.90;;;;;;5052122;28;75143;-73
2021/04/11 00:11:15;;;;;;;;;;;13.20;96.00;;;;;;5050441;28;77284;-74
2021/04/11 00:13:40;;;;;;;;;;;13.10;96.00;;;;;;5054023;27;75271;-71
2021/04/11 00:16:06;;;;;;;;;;;13.10;96.00;;;;;;5055434;28;75193;-73
2021/04/11 00:18:32;;;;;;;;;;;13.10;96.00;;;;;;5055756;28;74444;-73
2021/04/11 00:20:58;;;;;;;;;;;13.10;96.00;;;;;;5053747;28;75376;-74
2021/04/11 00:23:25;;;;;;;;;;;13.00;96.00;;;;;;5054080;28;74932;-73
2021/04/11 00:25:51;;;;;;;;;;;13.10;96.00;;;;;;5053932;28;75780;-73
2021/04/11 00:28:17;;;;;;;;;;;13.10;96.00;;;;;;5055780;28;75209;-76
2021/04/11 00:30:44;;;;;;;;;;;13.00;96.00;;;;;;5053372;28;78295;-74
2021/04/11 00:33:19;;;;;;;;;;;13.00;96.00;;;;;;5053731;28;74824;-73
2021/04/11 00:35:44;;;;;;;;;;;13.00;96.00;;;;;;5052977;28;77178;-73
2021/04/11 00:38:17;;;;;;;;;;;13.00;96.10;;;;;;5053570;28;76290;-74
2021/04/11 00:40:43;;;;;;;;;;;12.90;96.00;;;;;;5055260;28;76233;-75
2021/04/11 00:43:11;;;;;;;;;;;12.90;96.10;;;;;;5053710;28;75843;-74
2021/04/11 00:45:42;;;;;;;;;;;12.90;96.10;;;;;;5055466;28;75793;-73
2021/04/11 00:48:09;;;;;;;;;;;12.80;96.10;;;;;;5053677;28;77333;-76
2021/04/11 00:50:37;;;;;;;;;;;12.70;96.10;;;;;;5055300;28;75183;-73
2021/04/11 00:53:06;;;;;;;;;;;12.60;96.10;;;;;;5055337;28;75183;-74
2021/04/11 00:55:32;;;;;;;;;;;12.60;96.10;;;;;;5056035;28;75655;-73
2021/04/11 00:57:58;;;;;;;;;;;12.60;96.20;;;;;;5054328;28;77189;-73
2021/04/11 01:00:31;;;;;;;;;;;12.70;96.20;;;;;;5054836;28;78473;-72
2021/04/11 01:02:59;;;;;;;;;;;12.60;96.20;;;;;;5053971;28;78409;-73
2021/04/11 01:05:30;;;;;;;;;;;12.60;96.20;;;;;;5052171;28;77535;-72
2021/04/11 01:07:58;;;;;;;;;;;12.60;96.20;;;;;;5053602;27;94877;-73
2021/04/11 01:10:25;;;;;;;;;;;12.60;96.20;;;;;;5054517;28;75773;-72
2021/04/11 01:12:51;;;;;;;;;;;12.60;96.30;;;;;;5053164;28;74550;-74
2021/04/11 01:15:29;;;;;;;;;;;12.60;96.20;;;;;;5053474;28;75468;-71
2021/04/11 01:17:55;;;;;;;;;;;12.50;96.30;;;;;;5054397;28;75127;-71
2021/04/11 01:20:21;;;;;;;;;;;12.50;96.30;;;;;;5054134;28;74970;-71
2021/04/11 01:22:54;;;;;;;;;;;12.50;96.30;;;;;;5054019;28;75196;-71
2021/04/11 01:25:23;;;;;;;;;;;12.60;96.30;;;;;;5054025;28;76764;-71
2021/04/11 01:27:49;;;;;;;;;;;12.60;96.30;;;;;;5055055;28;75315;-73
2021/04/11 01:30:29;;;;;;;;;;;12.50;96.30;;;;;;5054967;28;76221;-73
2021/04/11 01:32:55;;;;;;;;;;;12.60;96.30;;;;;;5052666;28;75753;-71
2021/04/11 01:35:22;;;;;;;;;;;12.50;96.30;;;;;;5054334;28;75226;-72
2021/04/11 01:37:49;;;;;;;;;;;12.50;96.30;;;;;;5052963;28;76982;-72
2021/04/11 01:40:16;;;;;;;;;;;12.50;96.30;;;;;;5052657;28;77236;-75
2021/04/11 01:42:42;;;;;;;;;;;12.50;96.30;;;;;;5052741;28;76021;-74
2021/04/11 01:45:09;;;;;;;;;;;12.60;96.30;;;;;;5053752;28;75169;-75
2021/04/11 01:47:34;;;;;;;;;;;12.60;96.40;;;;;;5087064;27;75569;-73
2021/04/11 01:50:00;;;;;;;;;;;12.70;96.30;;;;;;5053979;28;75000;-74
2021/04/11 01:52:27;;;;;;;;;;;12.70;96.30;;;;;;5053869;28;74548;-73
2021/04/11 01:54:53;;;;;;;;;;;12.70;96.40;;;;;;5053474;27;75473;-72
2021/04/11 01:57:23;;;;;;;;;;;12.70;96.40;;;;;;5068795;27;76137;-72
2021/04/11 01:59:49;;;;;;;;;;;12.60;96.40;;;;;;5052063;28;74650;-72
2021/04/11 02:02:16;;;;;;;;;;;12.60;96.40;;;;;;5085695;27;75422;-72
2021/04/11 02:04:43;;;;;;;;;;;12.70;96.40;;;;;;5051770;28;75354;-71
2021/04/11 02:07:09;;;;;;;;;;;12.70;96.40;;;;;;5051618;28;76104;-73
2021/04/11 02:09:36;;;;;;;;;;;12.70;96.40;;;;;;5053867;28;75785;-71
2021/04/11 02:12:03;;;;;;;;;;;12.60;96.40;;;;;;5053447;28;75730;-71
2021/04/11 02:14:29;;;;;;;;;;;12.60;96.40;;;;;;5053863;28;74701;-69
2021/04/11 02:16:55;;;;;;;;;;;12.60;96.40;;;;;;5051978;28;78889;-72
2021/04/11 02:19:22;;;;;;;;;;;12.50;96.30;;;;;;5051804;28;75242;-71
2021/04/11 02:21:51;;;;;;;;;;;12.40;96.30;;;;;;5051753;28;77880;-71
2021/04/11 02:24:16;;;;;;;;;;;12.40;96.20;;;;;;5053582;28;75305;-74
2021/04/11 02:26:42;;;;;;;;;;;12.40;96.30;;;;;;5051558;28;75145;-72
2021/04/11 02:29:09;;;;;;;;;;;12.40;96.20;;;;;;5053453;28;75234;-77
2021/04/11 02:31:35;;;;;;;;;;;12.40;96.20;;;;;;5051734;28;76346;-74
2021/04/11 02:34:03;;;;;;;;;;;12.40;96.30;;;;;;5052450;28;77130;-73
2021/04/11 02:36:45;;;;;;;;;;;12.40;96.30;;;;;;5052881;27;74556;-72
2021/04/11 02:39:18;;;;;;;;;;;12.40;96.30;;;;;;5052017;28;78314;-73
2021/04/11 02:41:45;;;;;;;;;;;12.30;96.20;;;;;;5051665;28;78734;-71
2021/04/11 02:44:11;;;;;;;;;;;12.20;96.20;;;;;;5053100;28;74493;-72
2021/04/11 02:46:38;;;;;;;;;;;12.10;96.20;;;;;;5051536;28;75818;-71
2021/04/11 02:49:04;;;;;;;;;;;12.10;96.30;;;;;;5053130;28;74369;-72
2021/04/11 02:51:32;;;;;;;;;;;12.10;96.30;;;;;;5051370;28;78503;-72
2021/04/11 02:53:59;;;;;;;;;;;12.20;96.30;;;;;;5050943;28;76142;-72
2021/04/11 02:56:26;;;;;;;;;;;12.30;96.40;;;;;;5052769;28;75667;-71
2021/04/11 02:58:52;;;;;;;;;;;12.30;96.30;;;;;;5053070;28;74955;-71
2021/04/11 03:01:21;;;;;;;;;;;12.40;96.40;;;;;;5052730;28;75348;-73
2021/04/11 03:03:47;;;;;;;;;;;12.20;96.30;;;;;;5052739;28;76018;-72
2021/04/11 03:06:16;;;;;;;;;;;12.20;96.30;;;;;;5052419;28;74624;-72
2021/04/11 03:08:44;;;;;;;;;;;12.10;96.20;;;;;;5052861;28;75248;-73
2021/04/11 03:11:29;;;;;;;;;;;12.20;96.30;;;;;;5052789;28;75716;-71
2021/04/11 03:13:55;;;;;;;;;;;12.10;96.30;;;;;;5052541;28;75884;-71
2021/04/11 03:16:21;;;;;;;;;;;12.10;96.30;;;;;;5052657;28;74561;-71
2021/04/11 03:18:47;;;;;;;;;;;12.10;96.30;;;;;;5052284;28;75241;-71
2021/04/11 03:21:13;;;;;;;;;;;12.10;96.40;;;;;;5052310;28;75236;-73
2021/04/11 03:23:39;;;;;;;;;;;12.10;96.40;;;;;;5052658;28;75306;-71
2021/04/11 03:26:20;;;;;;;;;;;12.20;96.40;;;;;;5052541;28;75382;-71
2021/04/11 03:28:48;;;;;;;;;;;12.20;96.40;;;;;;5052392;28;75223;-71
2021/04/11 03:31:17;;;;;;;;;;;12.20;96.40;;;;;;5050732;28;78053;-72
2021/04/11 03:33:48;;;;;;;;;;;12.00;96.20;;;;;;5050680;28;76549;-72
2021/04/11 03:36:15;;;;;;;;;;;11.90;96.30;;;;;;5050513;28;77136;-73
2021/04/11 03:38:41;;;;;;;;;;;11.90;96.30;;;;;;5052213;28;75172;-71
2021/04/11 03:41:07;;;;;;;;;;;11.90;96.30;;;;;;5052192;28;75264;-72
2021/04/11 03:43:36;;;;;;;;;;;11.90;96.30;;;;;;5051330;28;77065;-74
2021/04/11 03:46:09;;;;;;;;;;;11.80;96.30;;;;;;5050832;28;78460;-72
2021/04/11 03:48:39;;;;;;;;;;;11.70;96.20;;;;;;5057711;27;75754;-72
2021/04/11 03:51:08;;;;;;;;;;;11.70;96.30;;;;;;5053994;28;78503;-72
2021/04/11 03:53:57;;;;;;;;;;;11.70;96.40;;;;;;5054166;28;75623;-72
2021/04/11 03:56:26;;;;;;;;;;;11.80;96.40;;;;;;5048239;27;77346;-72
2021/04/11 03:58:54;;;;;;;;;;;11.90;96.40;;;;;;5055679;28;75355;-72
2021/04/11 04:01:21;;;;;;;;;;;11.90;96.40;;;;;;5056201;28;74552;-72
2021/04/11 04:03:48;;;;;;;;;;;11.90;96.50;;;;;;5054706;27;75818;-75
2021/04/11 04:06:18;;;;;;;;;;;11.90;96.40;;;;;;5056068;28;74389;-71
2021/04/11 04:08:44;;;;;;;;;;;11.90;96.40;;;;;;5055236;28;75181;-72
2021/04/11 04:11:28;;;;;;;;;;;11.70;96.30;;;;;;5053992;28;76877;-72
2021/04/11 04:14:17;;;;;;;;;;;11.70;96.30;;;;;;5043760;27;74388;-72
2021/04/11 04:16:51;;;;;;;;;;;11.60;96.40;;;;;;5048156;28;75616;-73
2021/04/11 04:19:17;;;;;;;;;;;11.70;96.40;;;;;;5048429;28;75361;-74
2021/04/11 04:21:57;;;;;;;;;;;11.70;96.40;;;;;;5034786;28;74526;-74
2021/04/11 04:24:41;;;;;;;;;;;11.70;96.50;;;;;;5035612;28;78120;-72
2021/04/11 04:27:33;;;;;;;;;;;11.80;96.50;;;;;;5053268;28;77173;-72
2021/04/11 04:30:02;;;;;;;;;;;11.70;96.50;;;;;;5036929;28;77572;-73
2021/04/11 04:32:43;;;;;;;;;;;11.80;96.50;;;;;;5053549;28;75465;-72
2021/04/11 04:35:22;;;;;;;;;;;11.70;96.50;;;;;;5053430;28;75735;-72
2021/04/11 04:38:04;;;;;;;;;;;11.70;96.40;;;;;;5053295;28;77306;-72
2021/04/11 04:40:41;;;;;;;;;;;11.70;96.40;;;;;;5053643;28;77264;-72
2021/04/11 04:43:33;;;;;;;;;;;11.60;96.40;;;;;;5053580;28;74562;-73
2021/04/11 04:46:06;;;;;;;;;;;11.70;96.40;;;;;;5050956;27;74721;-73
2021/04/11 04:48:34;;;;;;;;;;;11.60;96.50;;;;;;5053676;28;74484;-73
2021/04/11 04:51:04;;;;;;;;;;;11.60;96.40;;;;;;5054974;28;74665;-72
2021/04/11 04:53:36;;;;;;;;;;;11.60;96.40;;;;;;5053404;28;76238;-72
2021/04/11 04:56:03;;;;;;;;;;;11.60;96.50;;;;;;5054559;28;75340;-72
2021/04/11 04:58:39;;;;;;;;;;;11.60;96.40;;;;;;5052917;27;78486;-71
2021/04/11 05:01:19;;;;;;;;;;;11.50;96.50;;;;;;5087982;27;78222;-72
2021/04/11 05:03:46;;;;;;;;;;;11.60;96.50;;;;;;5086933;27;75629;-72
2021/04/11 05:06:15;;;;;;;;;;;11.50;96.40;;;;;;5054547;28;74568;-72
2021/04/11 05:08:59;;;;;;;;;;;11.50;96.50;;;;;;5055009;28;74476;-72
2021/04/11 05:11:37;;;;;;;;;;;11.50;96.40;;;;;;5055009;27;75834;-72
2021/04/11 05:14:12;;;;;;;;;;;11.40;96.50;;;;;;5054514;28;75827;-73
2021/04/11 05:16:48;;;;;;;;;;;11.40;96.50;;;;;;5054485;28;75344;-73
2021/04/11 05:19:16;;;;;;;;;;;11.50;96.50;;;;;;5052846;28;75530;-72
2021/04/11 05:21:44;;;;;;;;;;;11.50;96.50;;;;;;5054373;28;74465;-73
2021/04/11 05:24:17;;;;;;;;;;;11.50;96.50;;;;;;5052675;28;77158;-73
2021/04/11 05:26:46;;;;;;;;;;;11.50;96.50;;;;;;5052983;28;75421;-75
2021/04/11 05:29:31;;;;;;;;;;;11.60;96.50;;;;;;5054391;28;74591;-75
2021/04/11 05:31:57;;;;;;;;;;;11.60;96.50;;;;;;5052878;28;78192;-75
2021/04/11 05:34:24;;;;;;;;;;;11.50;96.50;;;;;;5052930;28;75325;-75
2021/04/11 05:36:55;;;;;;;;;;;11.40;96.50;;;;;;5055530;28;75526;-76
2021/04/11 05:39:21;;;;;;;;;;;11.40;96.50;;;;;;5055866;28;74441;-75
2021/04/11 05:41:47;;;;;;;;;;;11.40;96.50;;;;;;5052864;28;76397;-74
2021/04/11 05:44:16;;;;;;;;;;;11.40;96.50;;;;;;5054553;28;75100;-75
2021/04/11 05:46:50;;;;;;;;;;;11.40;96.60;;;;;;5086131;27;78271;-74
2021/04/11 05:49:18;;;;;;;;;;;11.40;96.60;;;;;;5052490;28;75503;-73
2021/04/11 05:51:50;;;;;;;;;;;11.50;96.60;;;;;;5052230;28;76900;-73
2021/04/11 05:54:26;;;;;;;;;;;11.60;96.60;;;;;;5052405;28;77546;-73
2021/04/11 05:56:55;;;;;;;;;;;11.70;96.70;;;;;;5052130;28;77279;-74
2021/04/11 05:59:22;;;;;;;;;;;11.70;96.70;;;;;;5054033;28;74479;-74
2021/04/11 06:01:51;;;;;;;;;;;11.70;96.60;;;;;;5052775;28;74499;-74
2021/04/11 06:04:19;;;;;;;;;;;11.60;96.60;;;;;;5053091;28;75169;-74
2021/04/11 06:06:52;;;;;;;;;;;11.50;96.60;;;;;;5053601;28;75248;-74
2021/04/11 06:09:20;;;;;;;;;;;11.50;96.60;;;;;;5052317;27;74706;-74
2021/04/11 06:12:00;;;;;;;;;;;11.50;96.60;;;;;;5052771;28;75159;-73
2021/04/11 06:14:28;;;;;;;;;;;11.50;96.60;;;;;;5051993;28;75433;-73
2021/04/11 06:16:54;;;;;;;;;;;11.60;96.70;;;;;;5053596;28;74595;-73
2021/04/11 06:19:21;;;;;;;;;;;11.60;96.70;;;;;;5052329;28;77118;-73
2021/04/11 06:21:55;;;;;;;;;;;11.50;96.70;;;;;;5052594;27;74511;-73
2021/04/11 06:24:40;;;;;;;;;;;11.50;96.70;;;;;;5052052;28;78791;-73
2021/04/11 06:27:16;;;;;;;;;;;11.60;96.70;;;;;;5048906;27;74676;-75
2021/04/11 06:29:48;;;;;;;;;;;11.60;96.70;;;;;;5050436;28;77240;-74
2021/04/11 06:32:14;;;;;;;;;;;11.70;96.80;;;;;;5051663;28;75977;-73
2021/04/11 06:34:44;;;;;;;;;;;11.80;96.80;;;;;;5053363;28;75116;-73
2021/04/11 06:37:14;;;;;;;;;;;11.90;96.90;;;;;;5037572;27;74654;-74
2021/04/11 06:39:44;;;;;;;;;;;11.90;96.90;;;;;;5031319;28;75245;-73
2021/04/11 06:42:45;;;;;;;;;;;11.90;96.90;;;;;;5032686;28;76119;-73
2021/04/11 06:45:13;;;;;;;;;;;11.90;96.80;;;;;;5010229;28;74727;-72
2021/04/11 06:47:55;;;;;;;;;;;11.80;96.80;;;;;;5028778;28;75709;-73
2021/04/11 06:50:40;;;;;;;;;;;11.90;96.90;;;;;;5033045;28;74509;-73
2021/04/11 06:53:24;;;;;;;;;;;11.90;96.90;;;;;;5032904;28;75564;-73
2021/04/11 06:55:53;;;;;;;;;;;11.80;96.90;;;;;;5033205;28;74932;-75
2021/04/11 06:58:21;;;;;;;;;;;11.70;96.80;;;;;;5032022;28;78343;-73
2021/04/11 07:00:47;;;;;;;;;;;11.80;96.80;;;;;;5031413;28;76378;-73
2021/04/11 07:03:15;;;;;;;;;;;11.80;96.90;;;;;;5031198;28;77531;-73
2021/04/11 07:05:44;;;;;;;;;;;11.80;96.90;;;;;;5032222;28;75185;-73
2021/04/11 07:08:09;;;;;;;;;;;11.90;96.90;;;;;;5030963;28;76827;-73
2021/04/11 07:10:41;;;;;;;;;;;12.00;97.00;;;;;;5032679;28;75460;-74
2021/04/11 07:13:24;;;;;;;;;;;12.00;97.00;;;;;;5031083;28;76473;-74
2021/04/11 07:15:50;;;;;;;;;;;12.00;97.00;;;;;;5032739;28;74482;-74
2021/04/11 07:18:16;;;;;;;;;;;12.10;97.00;;;;;;5030877;28;78023;-74
2021/04/11 07:20:58;;;;;;;;;;;12.10;97.00;;;;;;5032451;28;74986;-76
2021/04/11 07:23:23;;;;;;;;;;;12.20;97.10;;;;;;5035587;28;75148;-75
2021/04/11 07:26:12;;;;;;;;;;;12.30;97.10;;;;;;5034242;28;78279;-74
2021/04/11 07:28:56;;;;;;;;;;;12.30;97.10;;;;;;5030967;28;78452;-73
2021/04/11 07:31:22;;;;;;;;;;;12.30;97.10;;;;;;5034754;28;74683;-73
2021/04/11 07:33:55;;;;;;;;;;;12.30;97.20;;;;;;5036405;28;75633;-74
2021/04/11 07:36:41;;;;;;;;;;;12.20;97.10;;;;;;5034527;28;74625;-74
2021/04/11 07:39:26;;;;;;;;;;;12.20;97.10;;;;;;5034406;28;75131;-76
2021/04/11 07:42:07;;;;;;;;;;;12.40;97.20;;;;;;5036239;28;75357;-74
2021/04/11 07:44:39;;;;;;;;;;;12.40;97.20;;;;;;5034414;28;76755;-75
2021/04/11 07:47:23;;;;;;;;;;;12.40;97.20;;;;;;5034154;28;77864;-76
2021/04/11 07:49:58;;;;;;;;;;;12.40;97.20;;;;;;5033965;28;75845;-71
2021/04/11 07:52:36;;;;;;;;;;;12.40;97.20;;;;;;5033982;28;76314;-70
2021/04/11 07:55:07;;;;;;;;;;;12.40;97.20;;;;;;5035732;28;75071;-70
2021/04/11 07:57:33;;;;;;;;;;;12.40;97.20;;;;;;5033964;28;76535;-75
2021/04/11 08:00:14;;;;;;;;;;;12.40;97.20;;;;;;5035689;28;75813;-72
2021/04/11 08:02:58;;;;;;;;;;;12.50;97.30;;;;;;5034959;28;77465;-72
2021/04/11 08:05:35;;;;;;;;;;;12.60;97.30;;;;;;5035117;28;75270;-71
2021/04/11 08:08:07;;;;;;;;;;;12.70;97.30;;;;;;5035969;28;74891;-71
2021/04/11 08:10:42;;;;;;;;;;;12.80;97.30;;;;;;5049383;28;75495;-70
2021/04/11 08:13:13;;;;;;;;;;;12.90;97.40;;;;;;5053846;28;75178;-78
2021/04/11 08:15:59;;;;;;;;;;;13.00;97.40;;;;;;5054927;28;75162;-70
2021/04/11 08:18:42;;;;;;;;;;;13.10;97.40;;;;;;5055233;27;75255;-70
2021/04/11 08:21:26;;;;;;;;;;;13.00;97.40;;;;;;5055110;28;75401;-69
2021/04/11 08:24:05;;;;;;;;;;;13.00;97.40;;;;;;5055019;28;74949;-67
2021/04/11 08:26:42;;;;;;;;;;;13.00;97.40;;;;;;5055580;27;74513;-65
2021/04/11 08:29:11;;;;;;;;;;;12.90;97.40;;;;;;5053723;28;76561;-67
2021/04/11 08:32:15;;;;;;;;;;;12.80;97.30;;;;;;5055042;27;75318;-68
2021/04/11 08:34:47;;;;;;;;;;;12.80;97.40;;;;;;5009350;28;75693;-66
2021/04/11 08:37:18;;;;;;;;;;;12.90;97.40;;;;;;4990884;28;77607;-66
2021/04/11 08:39:47;;;;;;;;;;;12.90;97.40;;;;;;5022757;28;74582;-66
2021/04/11 08:42:26;;;;;;;;;;;13.10;97.40;;;;;;5034877;28;75272;-66
2021/04/11 08:45:10;;;;;;;;;;;13.30;97.40;;;;;;5033070;28;78818;-67
2021/04/11 08:47:38;;;;;;;;;;;13.50;97.50;;;;;;5033140;28;77600;-65
2021/04/11 08:50:23;;;;;;;;;;;13.70;97.50;;;;;;5032829;28;77975;-66
2021/04/11 08:53:07;;;;;;;;;;;13.80;97.50;;;;;;5033064;28;78500;-69
2021/04/11 08:55:38;;;;;;;;;;;14.00;97.50;;;;;;5033868;28;75297;-68
2021/04/11 08:58:09;;;;;;;;;;;14.00;97.50;;;;;;5034321;28;75387;-65
2021/04/11 09:00:49;;;;;;;;;;;14.10;97.50;;;;;;5034494;28;75061;-67
2021/04/11 09:03:42;;;;;;;;;;;14.20;97.50;;;;;;5034012;28;75347;-67
2021/04/11 09:06:07;;;;;;;;;;;14.20;97.60;;;;;;5024835;28;75229;-68
2021/04/11 09:08:33;;;;;;;;;;;14.20;97.60;;;;;;5032532;28;77431;-66
2021/04/11 09:10:58;;;;;;;;;;;14.20;97.50;;;;;;5032848;28;76078;-71
2021/04/11 09:13:33;;;;;;;;;;;14.30;97.50;;;;;;5034414;28;75181;-67
2021/04/11 09:16:06;;;;;;;;;;;14.40;97.50;;;;;;5032522;28;76645;-71
2021/04/11 09:18:37;;;;;;;;;;;14.40;97.60;;;;;;5033906;28;75091;-70
2021/04/11 09:21:19;;;;;;;;;;;14.50;97.60;;;;;;5032301;28;77078;-67
2021/04/11 09:23:47;;;;;;;;;;;14.50;97.60;;;;;;5033986;28;75253;-68
2021/04/11 09:26:31;;;;;;;;;;;14.40;97.50;;;;;;5033831;28;74461;-69
2021/04/11 09:29:12;;;;;;;;;;;14.50;97.60;;;;;;5032342;28;77159;-68
2021/04/11 09:31:50;;;;;;;;;;;14.70;97.60;;;;;;5032004;28;75215;-68
2021/04/11 09:34:21;;;;;;;;;;;14.90;97.60;;;;;;5032168;28;77917;-68
2021/04/11 09:36:59;;;;;;;;;;;15.00;97.60;;;;;;5033268;28;74553;-68
2021/04/11 09:40:00;;;;;;;;;;;14.90;97.60;;;;;;5031875;28;74948;-69
2021/04/11 09:42:31;;;;;;;;;;;14.90;97.60;;;;;;4993942;28;77227;-67
2021/04/11 09:45:01;;;;;;;;;;;15.10;97.60;;;;;;5028490;28;75763;-68
2021/04/11 09:47:39;;;;;;;;;;;15.40;97.60;;;;;;5033092;28;75266;-68
2021/04/11 09:50:15;;;;;;;;;;;15.50;97.60;;;;;;5031698;28;76303;-69
2021/04/11 09:53:00;;;;;;;;;;;15.70;97.60;;;;;;5031682;28;75618;-67
2021/04/11 09:55:44;;;;;;;;;;;15.80;97.60;;;;;;5031900;28;75398;-68
2021/04/11 09:58:13;;;;;;;;;;;15.90;97.60;;;;;;5031792;28;77722;-68
2021/04/11 10:00:47;;;;;;;;;;;16.00;97.60;;;;;;5033121;28;75151;-68
2021/04/11 10:03:13;;;;;;;;;;;16.20;97.60;;;;;;5033366;28;75237;-69
2021/04/11 10:05:38;;;;;;;;;;;16.40;97.60;;;;;;5032478;28;75689;-69
2021/04/11 10:08:23;;;;;;;;;;;16.60;97.60;;;;;;5031614;28;74435;-69
2021/04/11 10:10:56;;;;;;;;;;;17.10;97.70;;;;;;5031654;28;76862;-68
2021/04/11 10:13:30;;;;;;;;;;;17.40;97.70;;;;;;5031747;28;75221;-67
2021/04/11 10:16:22;;;;;;;;;;;17.40;97.70;;;;;;5031278;28;76739;-67
2021/04/11 10:19:06;;;;;;;;;;;17.50;97.70;;;;;;5023900;28;75484;-68
2021/04/11 10:21:54;;;;;;;;;;;17.90;97.70;;;;;;5031197;28;77648;-67
2021/04/11 10:24:49;;;;;;;;;;;17.90;97.70;;;;;;5029846;28;75783;-68
2021/04/11 10:27:23;;;;;;;;;;;18.40;97.70;;;;;;5027713;28;74698;-68
2021/04/11 10:29:49;;;;;;;;;;;18.50;97.60;;;;;;5031202;28;78134;-69
2021/04/11 10:32:24;;;;;;;;;;;18.30;97.60;;;;;;5032992;28;75419;-66
2021/04/11 10:34:55;;;;;;;;;;;18.30;97.60;;;;;;5033090;28;74529;-67
2021/04/11 10:37:27;;;;;;;;;;;18.40;97.60;;;;;;5032080;28;75758;-68
2021/04/11 10:39:55;;;;;;;;;;;18.80;97.60;;;;;;5032385;28;75008;-69
2021/04/11 10:42:39;;;;;;;;;;;18.90;97.70;;;;;;5032500;28;75326;-69
2021/04/11 10:45:14;;;;;;;;;;;18.90;97.70;;;;;;5030985;28;75391;-68
2021/04/11 10:47:59;;;;;;;;;;;18.70;97.70;;;;;;5032592;28;75068;-71
2021/04/11 10:50:27;;;;;;;;;;;18.70;97.60;;;;;;5032550;28;75093;-67
2021/04/11 10:53:12;;;;;;;;;;;18.40;97.60;;;;;;5030886;28;74634;-67
2021/04/11 10:56:06;;;;;;;;;;;18.50;97.60;;;;;;5032407;28;75199;-68
2021/04/11 10:58:35;;;;;;;;;;;18.60;97.70;;;;;;5021012;28;75779;-67
2021/04/11 11:01:03;;;;;;;;;;;19.60;97.70;;;;;;5032990;28;74483;-67
2021/04/11 11:03:32;;;;;;;;;;;20.00;97.60;;;;;;5030491;28;77405;-66
2021/04/11 11:06:16;;;;;;;;;;;20.80;97.70;;;;;;5032294;28;75402;-66
2021/04/11 11:08:41;;;;;;;;;;;22.40;97.60;;;;;;5030304;28;77142;-68
2021/04/11 11:11:26;;;;;;;;;;;22.70;96.40;;;;;;5030724;28;75364;-67
2021/04/11 11:13:58;;;;;;;;;;;22.10;96.40;;;;;;5030270;28;75444;-67
2021/04/11 11:16:23;;;;;;;;;;;21.40;96.40;;;;;;5030790;28;75356;-68
2021/04/11 11:19:27;;;;;;;;;;;20.90;96.30;;;;;;5032544;28;75472;-68
2021/04/11 11:22:11;;;;;;;;;;;20.50;96.30;;;;;;4992478;28;75608;-69
2021/04/11 11:24:46;;;;;;;;;;;19.90;96.30;;;;;;5010079;28;74949;-67
2021/04/11 11:27:11;;;;;;;;;;;19.60;96.30;;;;;;5023632;28;75912;-67
2021/04/11 11:29:57;;;;;;;;;;;19.30;96.50;;;;;;5032284;28;75137;-68
2021/04/11 11:32:30;;;;;;;;;;;19.10;96.70;;;;;;5027422;28;74568;-66
2021/04/11 11:34:59;;;;;;;;;;;18.80;96.90;;;;;;5030317;28;77662;-67
2021/04/11 11:37:28;;;;;;;;;;;18.70;97.00;;;;;;5031768;28;75372;-68
2021/04/11 11:39:54;;;;;;;;;;;18.70;97.10;;;;;;5030186;28;76445;-67
2021/04/11 11:42:28;;;;;;;;;;;18.90;97.20;;;;;;5031702;28;75248;-67
2021/04/11 11:45:14;;;;;;;;;;;21.60;97.30;;;;;;5031987;28;75290;-68
2021/04/11 11:48:11;;;;;;;;;;;24.90;97.00;;;;;;5027428;28;75187;-67
2021/04/11 11:50:39;;;;;;;;;;;25.80;96.40;;;;;;5031995;28;74739;-69
2021/04/11 11:53:05;;;;;;;;;;;28.90;96.00;;;;;;5030671;28;77403;-68
2021/04/11 11:55:32;;;;;;;;;;;29.80;95.40;;;;;;5029955;28;75579;-68
2021/04/11 11:58:17;;;;;;;;;;;31.10;95.20;;;;;;5032133;28;74475;-67
2021/04/11 12:00:55;;;;;;;;;;;31.30;94.80;;;;;;5030115;28;76861;-69
2021/04/11 12:03:32;;;;;;;;;;;29.20;94.70;;;;;;5031861;28;75351;-67
2021/04/11 12:06:02;;;;;;;;;;;27.10;94.70;;;;;;5029726;28;75552;-68
2021/04/11 12:08:33;;;;;;;;;;;25.70;94.70;;;;;;5041051;27;75707;-68
2021/04/11 12:11:02;;;;;;;;;;;24.60;94.70;;;;;;5054046;28;77375;-67
2021/04/11 12:13:43;;;;;;;;;;;23.40;94.70;;;;;;5054196;28;75716;-70
2021/04/11 12:16:08;;;;;;;;;;;22.40;94.70;;;;;;5033297;28;75210;-67
2021/04/11 12:18:42;;;;;;;;;;;21.40;94.80;;;;;;5030958;28;75631;-67
2021/04/11 12:21:17;;;;;;;;;;;20.90;94.80;;;;;;5034668;28;75430;-67
2021/04/11 12:24:03;;;;;;;;;;;20.10;95.00;;;;;;5034668;28;74541;-68
2021/04/11 12:26:32;;;;;;;;;;;19.70;95.40;;;;;;5031963;28;77607;-68
2021/04/11 12:29:04;;;;;;;;;;;19.30;96.10;;;;;;5034436;28;75366;-69
2021/04/11 12:31:33;;;;;;;;;;;19.10;96.80;;;;;;5033843;28;77555;-70
2021/04/11 12:34:11;;;;;;;;;;;18.90;97.30;;;;;;5033209;28;77997;-68
2021/04/11 12:37:09;;;;;;;;;;;18.60;97.50;;;;;;5032649;28;76129;-67
2021/04/11 12:39:35;;;;;;;;;;;18.40;97.70;;;;;;5020869;28;78012;-71
2021/04/11 12:42:23;;;;;;;;;;;18.20;97.70;;;;;;5032869;28;75656;-69
2021/04/11 12:44:58;;;;;;;;;;;18.00;97.70;;;;;;5032504;28;77789;-67
2021/04/11 12:47:30;;;;;;;;;;;17.90;97.70;;;;;;5032805;28;78009;-68
2021/04/11 12:50:05;;;;;;;;;;;17.90;97.60;;;;;;5033035;28;77432;-68
2021/04/11 12:52:49;;;;;;;;;;;17.60;97.60;;;;;;5033123;28;76955;-68
2021/04/11 12:55:20;;;;;;;;;;;17.30;97.60;;;;;;5032891;28;75800;-67
2021/04/11 12:57:55;;;;;;;;;;;17.10;97.50;;;;;;5032719;28;75152;-67
2021/04/11 13:00:22;;;;;;;;;;;17.00;97.60;;;;;;5033173;28;76697;-69
2021/04/11 13:02:57;;;;;;;;;;;16.90;97.60;;;;;;5034358;28;75274;-70
2021/04/11 13:05:30;;;;;;;;;;;16.80;97.50;;;;;;5032237;28;75463;-70
2021/04/11 13:07:58;;;;;;;;;;;16.80;97.60;;;;;;5030903;28;77156;-69
2021/04/11 13:10:34;;;;;;;;;;;16.80;97.60;;;;;;5032588;28;75348;-68
2021/04/11 13:13:11;;;;;;;;;;;16.70;97.60;;;;;;5032715;28;79040;-69
2021/04/11 13:15:37;;;;;;;;;;;16.70;97.60;;;;;;5033645;28;76288;-67
2021/04/11 13:18:11;;;;;;;;;;;16.60;97.60;;;;;;5032760;28;74535;-68
2021/04/11 13:20:47;;;;;;;;;;;16.60;97.60;;;;;;5032327;28;76976;-67
2021/04/11 13:23:13;;;;;;;;;;;16.40;97.60;;;;;;5032467;28;78513;-67
2021/04/11 13:25:43;;;;;;;;;;;16.40;97.60;;;;;;5034304;28;74877;-68
2021/04/11 13:28:35;;;;;;;;;;;16.40;97.60;;;;;;5032511;28;78487;-67
2021/04/11 13:31:24;;;;;;;;;;;16.40;97.70;;;;;;5023855;28;75903;-67
2021/04/11 13:33:57;;;;;;;;;;;16.30;97.60;;;;;;5034065;28;75254;-66
2021/04/11 13:36:31;;;;;;;;;;;16.20;97.60;;;;;;5033213;28;74644;-69
2021/04/11 13:39:03;;;;;;;;;;;16.30;97.70;;;;;;5033524;28;75798;-67
2021/04/11 13:41:47;;;;;;;;;;;16.40;97.70;;;;;;5032232;28;76526;-67
2021/04/11 13:44:15;;;;;;;;;;;16.40;97.80;;;;;;5033801;28;75295;-68
2021/04/11 13:47:05;;;;;;;;;;;16.50;97.80;;;;;;5033686;28;74624;-67
2021/04/11 13:49:37;;;;;;;;;;;16.60;97.80;;;;;;5031828;28;77846;-67
2021/04/11 13:52:08;;;;;;;;;;;17.50;97.90;;;;;;5033876;28;75815;-69
2021/04/11 13:54:46;;;;;;;;;;;18.90;98.00;;;;;;5033405;28;75214;-67
2021/04/11 13:57:20;;;;;;;;;;;20.70;97.80;;;;;;5033685;28;76285;-66
2021/04/11 13:59:52;;;;;;;;;;;21.20;97.70;;;;;;5033578;28;74756;-67
2021/04/11 14:02:24;;;;;;;;;;;21.30;97.70;;;;;;5033384;28;75338;-67
2021/04/11 14:04:59;;;;;;;;;;;21.40;97.70;;;;;;5031785;28;76523;-70
2021/04/11 14:07:32;;;;;;;;;;;21.80;97.70;;;;;;5031329;28;76864;-70
2021/04/11 14:10:16;;;;;;;;;;;22.00;97.70;;;;;;5032414;28;74632;-67
2021/04/11 14:12:48;;;;;;;;;;;21.90;97.70;;;;;;5032659;28;75346;-67
2021/04/11 14:15:16;;;;;;;;;;;21.80;97.10;;;;;;5031435;28;77604;-68
2021/04/11 14:17:42;;;;;;;;;;;21.90;96.60;;;;;;5032929;27;75166;-70
2021/04/11 14:20:21;;;;;;;;;;;21.90;97.00;;;;;;5031572;28;75255;-71
2021/04/11 14:22:58;;;;;;;;;;;21.50;96.40;;;;;;5032932;28;74437;-68
2021/04/11 14:25:29;;;;;;;;;;;21.10;94.90;;;;;;5031343;28;75306;-68
2021/04/11 14:28:14;;;;;;;;;;;20.90;96.10;;;;;;5031767;28;77003;-68
2021/04/11 14:30:52;;;;;;;;;;;20.60;95.70;;;;;;5032395;28;75504;-68
2021/04/11 14:33:22;;;;;;;;;;;20.50;96.00;;;;;;5031582;28;78120;-67
2021/04/11 14:36:07;;;;;;;;;;;20.50;96.60;;;;;;5030873;28;77904;-67
2021/04/11 14:38:34;;;;;;;;;;;20.40;96.00;;;;;;5031222;28;78561;-68
2021/04/11 14:41:05;;;;;;;;;;;20.60;95.90;;;;;;5032485;28;75015;-68
2021/04/11 14:43:35;;;;;;;;;;;20.90;95.70;;;;;;5030905;28;77704;-68
2021/04/11 14:46:13;;;;;;;;;;;20.80;95.30;;;;;;5031052;28;77216;-68
2021/04/11 14:48:40;;;;;;;;;;;21.30;96.80;;;;;;5031270;28;77815;-67
2021/04/11 14:51:21;;;;;;;;;;;23.60;97.10;;;;;;5031073;28;77079;-69